sensor_id;sensor_type;location;lat;lon;timestamp;temperature;humidity
25248;DHT22;13191;47.472;11.214;2022-07-09T00:00:36;12.10;99.90
25248;DHT22;13191;47.472;11.214;2022-07-09T00:03:01;12.10;99.90
25248;DHT22;13191;47.472;11.214;2022-07-09T00:05:27;12.10;99.90
25248;DHT22;13191;47.472;11.214;2022-07-09T00:07:52;12.10;99.90
25248;DHT22;13191;47.472;11.214;2022-07-09T00:10:18;12.10;99.90
25248;DHT22;13191;47.472;11.214;2022-07-09T00:12:44;12.00;99.90
25248;DHT22;13191;47.472;11.214;2022-07-09T00:15:10;12.00;99.90
25248;DHT22;13191;47.472;11.214;2022-07-09T00:17:36;11.80;99.90
25248;DHT22;13191;47.472;11.214;2022-07-09T00:20:02;11.60;99.90
25248;DHT22;13191;47.472;11.214;2022-07-09T00:22:33;11.50;99.90
25248;DHT22;13191;47.472;11.214;2022-07-09T00:24:59;11.60;99.90
25248;DHT22;13191;47.472;11.214;2022-07-09T00:27:25;11.60;99.90
25248;DHT22;13191;47.472;11.214;2022-07-09T00:29:51;11.70;99.90
25248;DHT22;13191;47.472;11.214;2022-07-09T00:32:16;11.70;99.90
25248;DHT22;13191;47.472;11.214;2022-07-09T00:34:43;11.70;99.90
25248;DHT22;13191;47.472;11.214;2022-07-09T00:37:09;11.60;99.90
25248;DHT22;13191;47.472;11.214;2022-07-09T00:39:35;11.50;99.90
25248;DHT22;13191;47.472;11.214;2022-07-09T00:42:05;11.50;99.90
25248;DHT22;13191;47.472;11.214;2022-07-09T00:44:31;11.50;99.90
25248;DHT22;13191;47.472;11.214;2022-07-09T00:46:56;11.30;99.90
25248;DHT22;13191;47.472;11.214;2022-07-09T00:49:23;11.10;99.90
25248;DHT22;13191;47.472;11.214;2022-07-09T00:51:48;11.20;99.90
25248;DHT22;13191;47.472;11.214;2022-07-09T00:54:14;11.10;99.90
25248;DHT22;13191;47.472;11.214;2022-07-09T00:56:40;11.20;99.90
25248;DHT22;13191;47.472;11.214;2022-07-09T00:59:06;11.10;99.90
25248;DHT22;13191;47.472;11.214;2022-07-09T01:01:36;10.90;99.90
25248;DHT22;13191;47.472;11.214;2022-07-09T01:04:02;11.00;99.90
25248;DHT22;13191;47.472;11.214;2022-07-09T01:06:27;11.00;99.90
25248;DHT22;13191;47.472;11.214;2022-07-09T01:08:53;10.80;99.90
25248;DHT22;13191;47.472;11.214;2022-07-09T01:11:19;10.80;99.90
25248;DHT22;13191;47.472;11.214;2022-07-09T01:13:45;10.90;99.90
25248;DHT22;13191;47.472;11.214;2022-07-09T01:16:14;10.90;99.90
25248;DHT22;13191;47.472;11.214;2022-07-09T01:18:43;10.90;99.90
25248;DHT22;13191;47.472;11.214;2022-07-09T01:21:09;10.90;99.90
25248;DHT22;13191;47.472;11.214;2022-07-09T01:23:35;10.90;99.90
25248;DHT22;13191;47.472;11.214;2022-07-09T01:26:01;10.90;99.90
25248;DHT22;13191;47.472;11.214;2022-07-09T01:28:26;10.90;99.90
25248;DHT22;13191;47.472;11.214;2022-07-09T01:30:53;10.90;99.90
25248;DHT22;13191;47.472;11.214;2022-07-09T01:33:19;10.90;99.90
25248;DHT22;13191;47.472;11.214;2022-07-09T01:35:47;10.90;99.90
25248;DHT22;13191;47.472;11.214;2022-07-09T01:38:13;10.80;99.90
25248;DHT22;13191;47.472;11.214;2022-07-09T01:40:39;10.70;99.90
25248;DHT22;13191;47.472;11.214;2022-07-09T01:43:04;10.60;99.90
25248;DHT22;13191;47.472;11.214;2022-07-09T01:45:30;10.60;99.90
25248;DHT22;13191;47.472;11.214;2022-07-09T01:47:55;10.50;99.90
25248;DHT22;13191;47.472;11.214;2022-07-09T01:50:21;10.20;99.90
25248;DHT22;13191;47.472;11.214;2022-07-09T01:52:47;10.10;99.90
25248;DHT22;13191;47.472;11.214;2022-07-09T01:55:13;10.00;99.90
25248;DHT22;13191;47.472;11.214;2022-07-09T01:57:38;10.10;99.90
25248;DHT22;13191;47.472;11.214;2022-07-09T02:00:05;10.10;99.90
25248;DHT22;13191;47.472;11.214;2022-07-09T02:02:31;10.10;99.90
25248;DHT22;13191;47.472;11.214;2022-07-09T02:04:56;10.10;99.90
25248;DHT22;13191;47.472;11.214;2022-07-09T02:07:22;10.20;99.90
25248;DHT22;13191;47.472;11.214;2022-07-09T02:09:47;10.20;99.90
25248;DHT22;13191;47.472;11.214;2022-07-09T02:12:15;10.20;99.90
25248;DHT22;13191;47.472;11.214;2022-07-09T02:14:42;10.00;99.90
25248;DHT22;13191;47.472;11.214;2022-07-09T02:17:08;10.00;99.90
25248;DHT22;13191;47.472;11.214;2022-07-09T02:19:34;9.90;99.90
25248;DHT22;13191;47.472;11.214;2022-07-09T02:21:59;9.90;99.90
25248;DHT22;13191;47.472;11.214;2022-07-09T02:24:25;10.00;99.90
25248;DHT22;13191;47.472;11.214;2022-07-09T02:26:50;10.00;99.90
25248;DHT22;13191;47.472;11.214;2022-07-09T02:29:16;10.10;99.90
25248;DHT22;13191;47.472;11.214;2022-07-09T02:31:42;10.10;99.90
25248;DHT22;13191;47.472;11.214;2022-07-09T02:34:07;10.10;99.90
25248;DHT22;13191;47.472;11.214;2022-07-09T02:36:33;10.00;99.90
25248;DHT22;13191;47.472;11.214;2022-07-09T02:38:59;9.90;99.90
25248;DHT22;13191;47.472;11.214;2022-07-09T02:41:24;9.70;99.90
25248;DHT22;13191;47.472;11.214;2022-07-09T02:43:50;9.60;99.90
25248;DHT22;13191;47.472;11.214;2022-07-09T02:46:16;9.60;99.90
25248;DHT22;13191;47.472;11.214;2022-07-09T02:48:41;9.50;99.90
25248;DHT22;13191;47.472;11.214;2022-07-09T02:51:07;9.60;99.90
25248;DHT22;13191;47.472;11.214;2022-07-09T02:53:33;9.60;99.90
25248;DHT22;13191;47.472;11.214;2022-07-09T02:55:58;9.60;99.90
25248;DHT22;13191;47.472;11.214;2022-07-09T02:58:24;9.40;99.90
25248;DHT22;13191;47.472;11.214;2022-07-09T03:00:50;9.20;99.90
25248;DHT22;13191;47.472;11.214;2022-07-09T03:03:15;9.30;99.90
25248;DHT22;13191;47.472;11.214;2022-07-09T03:05:42;9.30;99.90
25248;DHT22;13191;47.472;11.214;2022-07-09T03:08:07;9.40;99.90
25248;DHT22;13191;47.472;11.214;2022-07-09T03:10:34;9.50;99.90
25248;DHT22;13191;47.472;11.214;2022-07-09T03:13:00;9.30;99.90
25248;DHT22;13191;47.472;11.214;2022-07-09T03:15:26;9.20;99.90
25248;DHT22;13191;47.472;11.214;2022-07-09T03:17:52;9.10;99.90
25248;DHT22;13191;47.472;11.214;2022-07-09T03:20:17;8.90;99.90
25248;DHT22;13191;47.472;11.214;2022-07-09T03:22:43;9.00;99.90
25248;DHT22;13191;47.472;11.214;2022-07-09T03:25:09;9.00;99.90
25248;DHT22;13191;47.472;11.214;2022-07-09T03:27:35;9.10;99.90
25248;DHT22;13191;47.472;11.214;2022-07-09T03:30:01;9.20;99.90
25248;DHT22;13191;47.472;11.214;2022-07-09T03:32:33;9.30;99.90
25248;DHT22;13191;47.472;11.214;2022-07-09T03:34:59;9.30;99.90
25248;DHT22;13191;47.472;11.214;2022-07-09T03:37:24;9.30;99.90
25248;DHT22;13191;47.472;11.214;2022-07-09T03:39:50;9.30;99.90
25248;DHT22;13191;47.472;11.214;2022-07-09T03:42:16;9.30;99.90
25248;DHT22;13191;47.472;11.214;2022-07-09T03:44:41;9.30;99.90
25248;DHT22;13191;47.472;11.214;2022-07-09T03:47:13;9.30;99.90
25248;DHT22;13191;47.472;11.214;2022-07-09T03:49:39;9.30;99.90
25248;DHT22;13191;47.472;11.214;2022-07-09T03:52:05;9.30;99.90
25248;DHT22;13191;47.472;11.214;2022-07-09T03:54:30;9.30;99.90
25248;DHT22;13191;47.472;11.214;2022-07-09T03:56:56;9.10;99.90
25248;DHT22;13191;47.472;11.214;2022-07-09T03:59:22;8.90;99.90
25248;DHT22;13191;47.472;11.214;2022-07-09T04:01:47;8.80;99.90
25248;DHT22;13191;47.472;11.214;2022-07-09T04:04:13;8.70;99.90
25248;DHT22;13191;47.472;11.214;2022-07-09T04:06:38;8.70;99.90
25248;DHT22;13191;47.472;11.214;2022-07-09T04:09:04;8.80;99.90
25248;DHT22;13191;47.472;11.214;2022-07-09T04:11:34;8.80;99.90
25248;DHT22;13191;47.472;11.214;2022-07-09T04:14:00;8.80;99.90
25248;DHT22;13191;47.472;11.214;2022-07-09T04:16:26;8.90;99.90
25248;DHT22;13191;47.472;11.214;2022-07-09T04:18:52;8.80;99.90
25248;DHT22;13191;47.472;11.214;2022-07-09T04:21:21;8.90;99.90
25248;DHT22;13191;47.472;11.214;2022-07-09T04:23:50;8.90;99.90
25248;DHT22;13191;47.472;11.214;2022-07-09T04:26:16;9.00;99.90
25248;DHT22;13191;47.472;11.214;2022-07-09T04:28:44;9.00;99.90
25248;DHT22;13191;47.472;11.214;2022-07-09T04:31:09;9.00;99.90
25248;DHT22;13191;47.472;11.214;2022-07-09T04:33:38;8.90;99.90
25248;DHT22;13191;47.472;11.214;2022-07-09T04:36:07;8.90;99.90
25248;DHT22;13191;47.472;11.214;2022-07-09T04:38:36;8.90;99.90
25248;DHT22;13191;47.472;11.214;2022-07-09T04:41:01;9.00;99.90
25248;DHT22;13191;47.472;11.214;2022-07-09T04:43:27;9.00;99.90
25248;DHT22;13191;47.472;11.214;2022-07-09T04:45:53;9.10;99.90
25248;DHT22;13191;47.472;11.214;2022-07-09T04:48:24;9.20;99.90
25248;DHT22;13191;47.472;11.214;2022-07-09T04:50:53;9.20;99.90
25248;DHT22;13191;47.472;11.214;2022-07-09T04:53:18;9.30;99.90
25248;DHT22;13191;47.472;11.214;2022-07-09T04:55:44;9.30;99.90
25248;DHT22;13191;47.472;11.214;2022-07-09T04:58:10;9.40;99.90
25248;DHT22;13191;47.472;11.214;2022-07-09T05:00:36;9.30;99.90
25248;DHT22;13191;47.472;11.214;2022-07-09T05:03:02;9.30;99.90
25248;DHT22;13191;47.472;11.214;2022-07-09T05:05:28;9.40;99.90
25248;DHT22;13191;47.472;11.214;2022-07-09T05:07:57;9.40;99.90
25248;DHT22;13191;47.472;11.214;2022-07-09T05:10:22;9.40;99.90
25248;DHT22;13191;47.472;11.214;2022-07-09T05:12:48;9.50;99.90
25248;DHT22;13191;47.472;11.214;2022-07-09T05:15:14;9.50;99.90
25248;DHT22;13191;47.472;11.214;2022-07-09T05:17:42;9.60;99.90
25248;DHT22;13191;47.472;11.214;2022-07-09T05:20:08;9.60;99.90
25248;DHT22;13191;47.472;11.214;2022-07-09T05:22:38;9.60;99.90
25248;DHT22;13191;47.472;11.214;2022-07-09T05:25:05;9.70;99.90
25248;DHT22;13191;47.472;11.214;2022-07-09T05:27:31;9.70;99.90
25248;DHT22;13191;47.472;11.214;2022-07-09T05:29:57;9.80;99.90
25248;DHT22;13191;47.472;11.214;2022-07-09T05:32:24;9.90;99.90
25248;DHT22;13191;47.472;11.214;2022-07-09T05:34:49;10.00;99.90
25248;DHT22;13191;47.472;11.214;2022-07-09T05:37:15;10.10;99.90
25248;DHT22;13191;47.472;11.214;2022-07-09T05:39:40;10.10;99.90
25248;DHT22;13191;47.472;11.214;2022-07-09T05:42:06;10.20;99.90
25248;DHT22;13191;47.472;11.214;2022-07-09T05:44:32;10.30;99.90
25248;DHT22;13191;47.472;11.214;2022-07-09T05:46:58;10.40;99.90
25248;DHT22;13191;47.472;11.214;2022-07-09T05:49:24;10.40;99.90
25248;DHT22;13191;47.472;11.214;2022-07-09T05:51:51;10.60;99.90
25248;DHT22;13191;47.472;11.214;2022-07-09T05:54:16;10.60;99.90
25248;DHT22;13191;47.472;11.214;2022-07-09T05:56:42;10.70;99.90
25248;DHT22;13191;47.472;11.214;2022-07-09T05:59:08;10.80;99.90
25248;DHT22;13191;47.472;11.214;2022-07-09T06:01:34;10.90;99.90
25248;DHT22;13191;47.472;11.214;2022-07-09T06:04:05;11.00;99.90
25248;DHT22;13191;47.472;11.214;2022-07-09T06:06:31;11.10;99.90
25248;DHT22;13191;47.472;11.214;2022-07-09T06:08:57;11.10;99.90
25248;DHT22;13191;47.472;11.214;2022-07-09T06:11:22;11.20;99.90
25248;DHT22;13191;47.472;11.214;2022-07-09T06:13:48;11.30;99.90
25248;DHT22;13191;47.472;11.214;2022-07-09T06:16:14;11.40;99.90
25248;DHT22;13191;47.472;11.214;2022-07-09T06:18:40;11.40;99.90
25248;DHT22;13191;47.472;11.214;2022-07-09T06:21:05;11.50;99.90
25248;DHT22;13191;47.472;11.214;2022-07-09T06:23:31;11.60;99.90
25248;DHT22;13191;47.472;11.214;2022-07-09T06:25:56;11.70;99.90
25248;DHT22;13191;47.472;11.214;2022-07-09T06:28:22;11.70;99.90
25248;DHT22;13191;47.472;11.214;2022-07-09T06:30:48;11.80;99.90
25248;DHT22;13191;47.472;11.214;2022-07-09T06:33:13;11.90;99.90
25248;DHT22;13191;47.472;11.214;2022-07-09T06:35:39;12.00;99.90
25248;DHT22;13191;47.472;11.214;2022-07-09T06:38:05;12.10;99.90
25248;DHT22;13191;47.472;11.214;2022-07-09T06:40:30;12.10;99.90
25248;DHT22;13191;47.472;11.214;2022-07-09T06:42:56;12.20;99.90
25248;DHT22;13191;47.472;11.214;2022-07-09T06:45:21;12.30;99.90
25248;DHT22;13191;47.472;11.214;2022-07-09T06:47:48;12.40;99.90
25248;DHT22;13191;47.472;11.214;2022-07-09T06:50:14;12.50;99.90
25248;DHT22;13191;47.472;11.214;2022-07-09T06:52:39;12.50;99.90
25248;DHT22;13191;47.472;11.214;2022-07-09T06:55:05;12.60;99.90
25248;DHT22;13191;47.472;11.214;2022-07-09T06:57:31;12.70;99.90
25248;DHT22;13191;47.472;11.214;2022-07-09T07:00:00;12.80;99.90
25248;DHT22;13191;47.472;11.214;2022-07-09T07:02:26;12.90;99.90
25248;DHT22;13191;47.472;11.214;2022-07-09T07:04:52;13.00;99.90
25248;DHT22;13191;47.472;11.214;2022-07-09T07:07:18;13.10;99.90
25248;DHT22;13191;47.472;11.214;2022-07-09T07:09:43;13.10;99.90
25248;DHT22;13191;47.472;11.214;2022-07-09T07:12:09;13.20;99.90
25248;DHT22;13191;47.472;11.214;2022-07-09T07:14:37;13.30;99.90
25248;DHT22;13191;47.472;11.214;2022-07-09T07:17:03;13.30;99.90
25248;DHT22;13191;47.472;11.214;2022-07-09T07:19:29;13.40;99.90
25248;DHT22;13191;47.472;11.214;2022-07-09T07:21:55;13.50;99.90
25248;DHT22;13191;47.472;11.214;2022-07-09T07:24:20;13.60;99.90
25248;DHT22;13191;47.472;11.214;2022-07-09T07:26:46;13.60;99.90
25248;DHT22;13191;47.472;11.214;2022-07-09T07:29:12;13.70;99.90
25248;DHT22;13191;47.472;11.214;2022-07-09T07:31:37;13.80;99.90
25248;DHT22;13191;47.472;11.214;2022-07-09T07:34:03;13.80;99.90
25248;DHT22;13191;47.472;11.214;2022-07-09T07:36:28;13.90;99.90
25248;DHT22;13191;47.472;11.214;2022-07-09T07:38:54;14.00;99.90
25248;DHT22;13191;47.472;11.214;2022-07-09T07:41:20;14.10;99.90
25248;DHT22;13191;47.472;11.214;2022-07-09T07:43:47;14.20;99.90
25248;DHT22;13191;47.472;11.214;2022-07-09T07:46:13;14.30;99.90
25248;DHT22;13191;47.472;11.214;2022-07-09T07:48:39;14.30;99.90
25248;DHT22;13191;47.472;11.214;2022-07-09T07:51:08;14.50;99.90
25248;DHT22;13191;47.472;11.214;2022-07-09T07:53:34;14.50;99.90
25248;DHT22;13191;47.472;11.214;2022-07-09T07:56:00;14.60;99.90
25248;DHT22;13191;47.472;11.214;2022-07-09T07:58:26;14.70;99.90
25248;DHT22;13191;47.472;11.214;2022-07-09T08:00:52;14.80;99.90
25248;DHT22;13191;47.472;11.214;2022-07-09T08:03:17;14.90;99.90
25248;DHT22;13191;47.472;11.214;2022-07-09T08:05:43;15.00;99.90
25248;DHT22;13191;47.472;11.214;2022-07-09T08:08:09;15.00;99.90
25248;DHT22;13191;47.472;11.214;2022-07-09T08:10:34;15.10;99.90
25248;DHT22;13191;47.472;11.214;2022-07-09T08:13:00;15.20;99.90
25248;DHT22;13191;47.472;11.214;2022-07-09T08:15:25;15.30;99.90
25248;DHT22;13191;47.472;11.214;2022-07-09T08:17:51;15.40;99.90
25248;DHT22;13191;47.472;11.214;2022-07-09T08:20:17;15.50;99.90
25248;DHT22;13191;47.472;11.214;2022-07-09T08:22:42;15.60;99.90
25248;DHT22;13191;47.472;11.214;2022-07-09T08:25:08;15.70;99.90
25248;DHT22;13191;47.472;11.214;2022-07-09T08:27:34;15.90;99.90
25248;DHT22;13191;47.472;11.214;2022-07-09T08:29:59;16.00;99.90
25248;DHT22;13191;47.472;11.214;2022-07-09T08:32:25;16.10;99.90
25248;DHT22;13191;47.472;11.214;2022-07-09T08:34:51;16.10;99.90
25248;DHT22;13191;47.472;11.214;2022-07-09T08:37:16;16.20;99.90
25248;DHT22;13191;47.472;11.214;2022-07-09T08:39:44;16.30;99.90
25248;DHT22;13191;47.472;11.214;2022-07-09T08:42:10;16.50;99.90
25248;DHT22;13191;47.472;11.214;2022-07-09T08:44:40;16.50;99.90
25248;DHT22;13191;47.472;11.214;2022-07-09T08:47:11;16.60;99.90
25248;DHT22;13191;47.472;11.214;2022-07-09T08:49:37;16.70;99.90
25248;DHT22;13191;47.472;11.214;2022-07-09T08:52:03;16.70;99.90
25248;DHT22;13191;47.472;11.214;2022-07-09T08:54:31;16.70;99.90
25248;DHT22;13191;47.472;11.214;2022-07-09T08:56:58;16.70;99.90
25248;DHT22;13191;47.472;11.214;2022-07-09T08:59:24;16.80;99.90
25248;DHT22;13191;47.472;11.214;2022-07-09T09:01:50;16.80;99.90
25248;DHT22;13191;47.472;11.214;2022-07-09T09:04:16;16.90;99.90
25248;DHT22;13191;47.472;11.214;2022-07-09T09:06:43;17.00;99.90
25248;DHT22;13191;47.472;11.214;2022-07-09T09:09:09;17.10;99.90
25248;DHT22;13191;47.472;11.214;2022-07-09T09:11:37;17.10;99.90
25248;DHT22;13191;47.472;11.214;2022-07-09T09:14:03;17.10;99.90
25248;DHT22;13191;47.472;11.214;2022-07-09T09:16:29;17.20;99.90
25248;DHT22;13191;47.472;11.214;2022-07-09T09:18:55;17.20;99.90
25248;DHT22;13191;47.472;11.214;2022-07-09T09:21:24;17.20;99.90
25248;DHT22;13191;47.472;11.214;2022-07-09T09:23:53;17.30;99.90
25248;DHT22;13191;47.472;11.214;2022-07-09T09:26:24;17.30;99.90
25248;DHT22;13191;47.472;11.214;2022-07-09T09:28:55;17.40;99.90
25248;DHT22;13191;47.472;11.214;2022-07-09T09:31:26;17.40;99.90
25248;DHT22;13191;47.472;11.214;2022-07-09T09:33:55;17.50;99.90
25248;DHT22;13191;47.472;11.214;2022-07-09T09:36:37;17.40;99.90
25248;DHT22;13191;47.472;11.214;2022-07-09T09:39:23;17.30;99.90
25248;DHT22;13191;47.472;11.214;2022-07-09T09:42:03;17.30;99.90
25248;DHT22;13191;47.472;11.214;2022-07-09T09:44:31;17.40;99.90
25248;DHT22;13191;47.472;11.214;2022-07-09T09:47:03;17.60;99.90
25248;DHT22;13191;47.472;11.214;2022-07-09T09:49:29;17.60;99.90
25248;DHT22;13191;47.472;11.214;2022-07-09T09:52:07;17.70;99.90
25248;DHT22;13191;47.472;11.214;2022-07-09T09:54:38;17.80;99.90
25248;DHT22;13191;47.472;11.214;2022-07-09T09:57:09;17.80;99.90
25248;DHT22;13191;47.472;11.214;2022-07-09T09:59:39;17.90;99.90
25248;DHT22;13191;47.472;11.214;2022-07-09T10:02:06;17.80;99.90
25248;DHT22;13191;47.472;11.214;2022-07-09T10:04:32;17.70;99.90
25248;DHT22;13191;47.472;11.214;2022-07-09T10:06:58;17.80;99.90
25248;DHT22;13191;47.472;11.214;2022-07-09T10:09:24;17.80;99.90
25248;DHT22;13191;47.472;11.214;2022-07-09T10:11:50;17.80;99.90
25248;DHT22;13191;47.472;11.214;2022-07-09T10:16:51;17.90;99.90
25248;DHT22;13191;47.472;11.214;2022-07-09T10:19:25;17.90;99.90
25248;DHT22;13191;47.472;11.214;2022-07-09T10:21:56;17.90;99.90
25248;DHT22;13191;47.472;11.214;2022-07-09T10:24:30;18.00;99.90
25248;DHT22;13191;47.472;11.214;2022-07-09T10:27:10;18.00;99.90
25248;DHT22;13191;47.472;11.214;2022-07-09T10:29:37;18.10;99.90
25248;DHT22;13191;47.472;11.214;2022-07-09T10:32:28;18.20;99.90
25248;DHT22;13191;47.472;11.214;2022-07-09T10:34:59;18.30;99.90
25248;DHT22;13191;47.472;11.214;2022-07-09T10:37:44;18.30;99.90
25248;DHT22;13191;47.472;11.214;2022-07-09T10:42:38;18.40;99.90
25248;DHT22;13191;47.472;11.214;2022-07-09T10:45:25;18.60;99.90
25248;DHT22;13191;47.472;11.214;2022-07-09T10:47:58;18.70;99.90
25248;DHT22;13191;47.472;11.214;2022-07-09T10:50:26;18.60;99.90
25248;DHT22;13191;47.472;11.214;2022-07-09T10:52:53;18.60;99.90
25248;DHT22;13191;47.472;11.214;2022-07-09T10:55:20;18.60;99.90
25248;DHT22;13191;47.472;11.214;2022-07-09T10:57:45;18.70;99.90
25248;DHT22;13191;47.472;11.214;2022-07-09T11:00:25;18.60;99.90
25248;DHT22;13191;47.472;11.214;2022-07-09T11:02:56;18.60;99.90
25248;DHT22;13191;47.472;11.214;2022-07-09T11:05:34;18.60;99.90
25248;DHT22;13191;47.472;11.214;2022-07-09T11:08:08;18.60;99.90
25248;DHT22;13191;47.472;11.214;2022-07-09T11:10:38;18.50;99.90
25248;DHT22;13191;47.472;11.214;2022-07-09T11:13:04;18.60;99.90
25248;DHT22;13191;47.472;11.214;2022-07-09T11:15:33;18.80;99.90
25248;DHT22;13191;47.472;11.214;2022-07-09T11:18:07;19.00;99.90
25248;DHT22;13191;47.472;11.214;2022-07-09T11:23:03;19.40;99.90
25248;DHT22;13191;47.472;11.214;2022-07-09T11:25:29;19.40;99.90
25248;DHT22;13191;47.472;11.214;2022-07-09T11:27:57;19.40;99.90
25248;DHT22;13191;47.472;11.214;2022-07-09T11:30:24;19.50;99.90
25248;DHT22;13191;47.472;11.214;2022-07-09T11:32:50;19.50;99.90
25248;DHT22;13191;47.472;11.214;2022-07-09T11:35:26;19.50;99.90
25248;DHT22;13191;47.472;11.214;2022-07-09T11:37:52;19.50;99.90
25248;DHT22;13191;47.472;11.214;2022-07-09T11:40:18;19.60;99.90
25248;DHT22;13191;47.472;11.214;2022-07-09T11:42:45;19.70;99.90
25248;DHT22;13191;47.472;11.214;2022-07-09T11:45:11;19.70;99.90
25248;DHT22;13191;47.472;11.214;2022-07-09T11:47:38;19.80;99.90
25248;DHT22;13191;47.472;11.214;2022-07-09T11:50:10;19.80;99.90
25248;DHT22;13191;47.472;11.214;2022-07-09T11:52:42;19.80;99.90
25248;DHT22;13191;47.472;11.214;2022-07-09T11:55:09;19.80;99.90
25248;DHT22;13191;47.472;11.214;2022-07-09T11:57:36;19.80;99.90
25248;DHT22;13191;47.472;11.214;2022-07-09T12:00:07;19.90;99.90
25248;DHT22;13191;47.472;11.214;2022-07-09T12:02:35;19.90;99.90
25248;DHT22;13191;47.472;11.214;2022-07-09T12:05:04;19.90;99.90
25248;DHT22;13191;47.472;11.214;2022-07-09T12:07:30;19.90;99.90
25248;DHT22;13191;47.472;11.214;2022-07-09T12:10:02;19.90;99.90
25248;DHT22;13191;47.472;11.214;2022-07-09T12:12:30;19.90;99.90
25248;DHT22;13191;47.472;11.214;2022-07-09T12:14:56;20.00;99.90
25248;DHT22;13191;47.472;11.214;2022-07-09T12:17:29;20.00;99.90
25248;DHT22;13191;47.472;11.214;2022-07-09T12:19:55;20.10;99.90
25248;DHT22;13191;47.472;11.214;2022-07-09T12:22:22;20.20;99.90
25248;DHT22;13191;47.472;11.214;2022-07-09T12:24:51;20.30;99.90
25248;DHT22;13191;47.472;11.214;2022-07-09T12:27:17;20.50;99.90
25248;DHT22;13191;47.472;11.214;2022-07-09T12:29:43;20.60;99.90
25248;DHT22;13191;47.472;11.214;2022-07-09T12:32:09;20.60;99.90
25248;DHT22;13191;47.472;11.214;2022-07-09T12:34:35;20.60;99.90
25248;DHT22;13191;47.472;11.214;2022-07-09T12:37:01;20.60;99.90
25248;DHT22;13191;47.472;11.214;2022-07-09T12:39:27;20.60;99.90
25248;DHT22;13191;47.472;11.214;2022-07-09T12:41:53;20.50;99.90
25248;DHT22;13191;47.472;11.214;2022-07-09T12:44:18;20.60;99.90
25248;DHT22;13191;47.472;11.214;2022-07-09T12:46:44;20.70;99.90
25248;DHT22;13191;47.472;11.214;2022-07-09T12:49:10;20.70;99.90
25248;DHT22;13191;47.472;11.214;2022-07-09T12:51:35;20.80;99.90
25248;DHT22;13191;47.472;11.214;2022-07-09T12:54:01;20.90;99.90
25248;DHT22;13191;47.472;11.214;2022-07-09T12:56:27;20.90;99.90
25248;DHT22;13191;47.472;11.214;2022-07-09T12:58:53;20.90;99.90
25248;DHT22;13191;47.472;11.214;2022-07-09T13:01:19;20.90;99.90
25248;DHT22;13191;47.472;11.214;2022-07-09T13:03:45;20.90;99.90
25248;DHT22;13191;47.472;11.214;2022-07-09T13:06:10;20.80;99.90
25248;DHT22;13191;47.472;11.214;2022-07-09T13:08:55;20.80;99.90
25248;DHT22;13191;47.472;11.214;2022-07-09T13:11:23;20.80;99.90
25248;DHT22;13191;47.472;11.214;2022-07-09T13:13:49;20.80;99.90
25248;DHT22;13191;47.472;11.214;2022-07-09T13:16:15;20.70;99.90
25248;DHT22;13191;47.472;11.214;2022-07-09T13:18:40;20.80;99.90
25248;DHT22;13191;47.472;11.214;2022-07-09T13:21:06;20.80;99.90
25248;DHT22;13191;47.472;11.214;2022-07-09T13:23:32;20.80;99.90
25248;DHT22;13191;47.472;11.214;2022-07-09T13:25:58;20.90;99.90
25248;DHT22;13191;47.472;11.214;2022-07-09T13:28:24;21.10;99.90
25248;DHT22;13191;47.472;11.214;2022-07-09T13:30:50;21.30;99.90
25248;DHT22;13191;47.472;11.214;2022-07-09T13:33:16;21.50;99.90
25248;DHT22;13191;47.472;11.214;2022-07-09T13:35:42;21.70;99.90
25248;DHT22;13191;47.472;11.214;2022-07-09T13:38:07;21.60;99.90
25248;DHT22;13191;47.472;11.214;2022-07-09T13:40:33;21.60;99.90
25248;DHT22;13191;47.472;11.214;2022-07-09T13:42:59;21.80;99.90
25248;DHT22;13191;47.472;11.214;2022-07-09T13:45:24;21.80;99.90
25248;DHT22;13191;47.472;11.214;2022-07-09T13:47:52;22.00;99.90
25248;DHT22;13191;47.472;11.214;2022-07-09T13:50:18;22.10;99.90
25248;DHT22;13191;47.472;11.214;2022-07-09T13:52:44;22.30;99.90
25248;DHT22;13191;47.472;11.214;2022-07-09T13:55:09;22.50;99.90
25248;DHT22;13191;47.472;11.214;2022-07-09T13:57:35;22.70;99.90
25248;DHT22;13191;47.472;11.214;2022-07-09T14:00:01;22.80;99.90
25248;DHT22;13191;47.472;11.214;2022-07-09T14:02:26;23.00;99.90
25248;DHT22;13191;47.472;11.214;2022-07-09T14:04:53;22.90;99.90
25248;DHT22;13191;47.472;11.214;2022-07-09T14:07:19;23.00;99.90
25248;DHT22;13191;47.472;11.214;2022-07-09T14:09:45;23.00;99.90
25248;DHT22;13191;47.472;11.214;2022-07-09T14:12:11;23.10;99.90
25248;DHT22;13191;47.472;11.214;2022-07-09T14:14:37;23.20;99.90
25248;DHT22;13191;47.472;11.214;2022-07-09T14:17:02;23.20;99.90
25248;DHT22;13191;47.472;11.214;2022-07-09T14:19:29;23.10;99.90
25248;DHT22;13191;47.472;11.214;2022-07-09T14:21:55;22.80;99.90
25248;DHT22;13191;47.472;11.214;2022-07-09T14:24:20;22.70;99.90
25248;DHT22;13191;47.472;11.214;2022-07-09T14:26:46;22.40;99.90
25248;DHT22;13191;47.472;11.214;2022-07-09T14:29:13;22.30;99.90
25248;DHT22;13191;47.472;11.214;2022-07-09T14:31:42;22.20;99.90
25248;DHT22;13191;47.472;11.214;2022-07-09T14:34:08;22.10;99.90
25248;DHT22;13191;47.472;11.214;2022-07-09T14:36:34;22.20;99.90
25248;DHT22;13191;47.472;11.214;2022-07-09T14:39:00;22.20;99.90
25248;DHT22;13191;47.472;11.214;2022-07-09T14:41:28;22.30;99.90
25248;DHT22;13191;47.472;11.214;2022-07-09T14:43:54;22.20;99.90
25248;DHT22;13191;47.472;11.214;2022-07-09T14:46:22;22.20;99.90
25248;DHT22;13191;47.472;11.214;2022-07-09T14:48:48;22.20;99.90
25248;DHT22;13191;47.472;11.214;2022-07-09T14:51:16;22.10;99.90
25248;DHT22;13191;47.472;11.214;2022-07-09T14:53:42;22.10;99.90
25248;DHT22;13191;47.472;11.214;2022-07-09T14:56:08;22.10;99.90
25248;DHT22;13191;47.472;11.214;2022-07-09T14:58:33;21.90;99.90
25248;DHT22;13191;47.472;11.214;2022-07-09T15:00:59;21.90;99.90
25248;DHT22;13191;47.472;11.214;2022-07-09T15:03:24;21.80;99.90
25248;DHT22;13191;47.472;11.214;2022-07-09T15:05:50;21.80;99.90
25248;DHT22;13191;47.472;11.214;2022-07-09T15:08:16;21.80;99.90
25248;DHT22;13191;47.472;11.214;2022-07-09T15:10:42;21.80;99.90
25248;DHT22;13191;47.472;11.214;2022-07-09T15:13:07;21.90;99.90
25248;DHT22;13191;47.472;11.214;2022-07-09T15:15:34;21.90;99.90
25248;DHT22;13191;47.472;11.214;2022-07-09T15:18:00;22.00;99.90
25248;DHT22;13191;47.472;11.214;2022-07-09T15:20:26;22.00;99.90
25248;DHT22;13191;47.472;11.214;2022-07-09T15:22:57;22.10;99.90
25248;DHT22;13191;47.472;11.214;2022-07-09T15:25:23;22.20;99.90